createdAt,value
2022-10-02T00:00:20.469Z,32.30
2022-10-02T00:01:20.492Z,33.20
2022-10-02T00:02:21.381Z,31.40
2022-10-02T00:03:20.455Z,26.60
2022-10-02T00:04:20.439Z,27.70
2022-10-02T00:05:20.402Z,29.90
2022-10-02T00:06:20.431Z,24.20
2022-10-02T00:07:20.381Z,22.70
2022-10-02T00:08:24.026Z,25.40
2022-10-02T00:09:21.239Z,23.20
2022-10-02T00:10:20.363Z,24.40
2022-10-02T00:11:20.366Z,25.50
2022-10-02T00:12:20.349Z,23.10
2022-10-02T00:13:20.301Z,23.90
2022-10-02T00:14:20.319Z,27.90
2022-10-02T00:15:20.290Z,26.80
2022-10-02T00:16:20.371Z,23.90
2022-10-02T00:17:20.261Z,25.30
2022-10-02T00:18:20.263Z,28.70
2022-10-02T00:19:20.249Z,30.40
2022-10-02T00:20:20.243Z,25.30
2022-10-02T00:21:20.213Z,33.70
2022-10-02T00:22:20.994Z,29.30
2022-10-02T00:23:20.212Z,27.90
2022-10-02T00:24:20.321Z,28.40
2022-10-02T00:25:20.182Z,30.70
2022-10-02T00:26:20.173Z,27.70
2022-10-02T00:27:20.150Z,28.50
2022-10-02T00:28:20.194Z,31.00
2022-10-02T00:29:20.134Z,32.50
2022-10-02T00:30:20.141Z,32.50
2022-10-02T00:31:20.198Z,31.70
2022-10-02T00:32:20.122Z,30.80
2022-10-02T00:33:20.081Z,28.60
2022-10-02T00:34:20.092Z,28.60
2022-10-02T00:35:20.070Z,20.30
2022-10-02T00:36:20.091Z,21.60
2022-10-02T00:37:20.100Z,19.70
2022-10-02T00:38:20.050Z,19.80
2022-10-02T00:39:20.010Z,15.80
2022-10-02T00:40:20.018Z,18.90
2022-10-02T00:41:19.993Z,17.60
2022-10-02T00:42:20.741Z,18.20
2022-10-02T00:43:20.773Z,15.20
2022-10-02T00:44:19.990Z,15.90
2022-10-02T00:45:19.959Z,21.90
2022-10-02T00:46:20.033Z,19.00
2022-10-02T00:47:20.099Z,20.50
2022-10-02T00:48:19.939Z,19.20
2022-10-02T00:49:19.910Z,21.50
2022-10-02T00:50:19.909Z,21.20
2022-10-02T00:51:19.880Z,25.60
2022-10-02T00:52:19.889Z,20.80
2022-10-02T00:53:19.893Z,19.70
2022-10-02T00:54:19.870Z,23.20
2022-10-02T00:55:19.839Z,21.00
2022-10-02T00:56:19.849Z,21.50
2022-10-02T00:57:19.808Z,21.40
2022-10-02T00:58:19.853Z,23.80
2022-10-02T00:59:19.811Z,25.00
2022-10-02T01:00:19.800Z,21.20
2022-10-02T01:01:19.867Z,23.70
2022-10-02T01:02:19.842Z,24.00
2022-10-02T01:03:20.639Z,17.70
2022-10-02T01:04:20.574Z,19.90
2022-10-02T01:05:19.748Z,21.50
2022-10-02T01:06:19.749Z,16.70
2022-10-02T01:07:19.707Z,18.00
2022-10-02T01:08:19.702Z,17.40
2022-10-02T01:09:19.686Z,16.00
2022-10-02T01:10:19.678Z,15.40
2022-10-02T01:11:19.658Z,18.00
2022-10-02T01:12:19.669Z,16.00
2022-10-02T01:13:19.638Z,17.30
2022-10-02T01:14:19.638Z,16.00
2022-10-02T01:15:19.617Z,20.10
2022-10-02T01:16:19.683Z,19.70
2022-10-02T01:17:19.588Z,16.90
2022-10-02T01:18:19.612Z,18.60
2022-10-02T01:19:19.568Z,15.40
2022-10-02T01:20:19.658Z,23.00
2022-10-02T01:21:19.537Z,19.60
2022-10-02T01:22:19.538Z,21.90
2022-10-02T01:23:19.538Z,21.90
2022-10-02T01:24:20.304Z,21.30
2022-10-02T01:25:19.522Z,22.40
2022-10-02T01:26:19.858Z,19.80
2022-10-02T01:27:19.486Z,19.90
2022-10-02T01:28:19.532Z,23.20
2022-10-02T01:29:19.467Z,21.20
2022-10-02T01:30:19.437Z,24.10
2022-10-02T01:31:20.087Z,20.90
2022-10-02T01:32:19.416Z,21.30
2022-10-02T01:33:19.419Z,19.70
2022-10-02T01:34:19.389Z,19.00
2022-10-02T01:35:19.397Z,20.70
2022-10-02T01:36:19.383Z,17.60
2022-10-02T01:37:19.618Z,16.80
2022-10-02T01:38:19.347Z,17.50
2022-10-02T01:39:19.367Z,18.70
2022-10-02T01:40:19.328Z,12.80
2022-10-02T01:41:19.324Z,15.30
2022-10-02T01:42:19.557Z,16.80
2022-10-02T01:43:19.310Z,15.20
2022-10-02T01:44:20.036Z,20.40
2022-10-02T01:45:20.199Z,14.90
2022-10-02T01:46:19.256Z,14.50
2022-10-02T01:47:19.567Z,21.70
2022-10-02T01:48:19.237Z,19.60
2022-10-02T01:49:19.247Z,18.30
2022-10-02T01:50:19.216Z,17.00
2022-10-02T01:51:19.207Z,20.00
2022-10-02T01:52:19.200Z,23.20
2022-10-02T01:53:19.189Z,20.00
2022-10-02T01:54:19.186Z,22.40
2022-10-02T01:55:19.175Z,20.80
2022-10-02T01:56:19.148Z,18.60
2022-10-02T01:57:19.136Z,17.10
2022-10-02T01:58:19.115Z,17.50
2022-10-02T01:59:19.126Z,20.60
2022-10-02T02:00:19.096Z,17.60
2022-10-02T02:01:19.164Z,17.60
2022-10-02T02:02:19.151Z,20.50
2022-10-02T02:03:19.076Z,19.90
2022-10-02T02:04:19.069Z,18.00
2022-10-02T02:05:19.075Z,21.20
2022-10-02T02:06:19.047Z,20.70
2022-10-02T02:07:19.046Z,18.50
2022-10-02T02:08:19.015Z,20.00
2022-10-02T02:09:19.185Z,19.10
2022-10-02T02:10:19.184Z,18.40
2022-10-02T02:11:18.988Z,18.00
2022-10-02T02:12:18.955Z,21.50
2022-10-02T02:13:18.962Z,19.20
2022-10-02T02:14:18.935Z,19.80
2022-10-02T02:15:18.944Z,18.50
2022-10-02T02:16:18.958Z,14.10
2022-10-02T02:17:18.926Z,15.40
2022-10-02T02:18:18.885Z,11.30
2022-10-02T02:19:18.887Z,15.90
2022-10-02T02:20:18.865Z,13.80
2022-10-02T02:21:21.977Z,15.50
2022-10-02T02:22:18.848Z,17.70
2022-10-02T02:23:18.845Z,14.50
2022-10-02T02:24:18.817Z,14.50
2022-10-02T02:25:19.185Z,13.80
2022-10-02T02:26:18.797Z,13.50
2022-10-02T02:27:18.804Z,12.80
2022-10-02T02:28:18.842Z,14.40
2022-10-02T02:29:18.784Z,11.40
2022-10-02T02:30:18.755Z,16.60
2022-10-02T02:31:18.812Z,14.10
2022-10-02T02:32:18.736Z,13.80
2022-10-02T02:33:18.738Z,14.60
2022-10-02T02:34:18.705Z,15.70
2022-10-02T02:35:18.715Z,15.00
2022-10-02T02:36:18.684Z,15.80
2022-10-02T02:37:18.685Z,14.50
2022-10-02T02:38:18.654Z,18.60
2022-10-02T02:39:18.655Z,19.80
2022-10-02T02:40:18.665Z,14.80
2022-10-02T02:41:18.649Z,15.60
2022-10-02T02:42:20.820Z,19.40
2022-10-02T02:43:18.625Z,16.90
2022-10-02T02:44:18.594Z,17.60
2022-10-02T02:45:19.296Z,16.70
2022-10-02T02:46:18.585Z,14.00
2022-10-02T02:47:18.586Z,18.70
2022-10-02T02:48:18.551Z,16.20
2022-10-02T02:49:18.553Z,15.60
2022-10-02T02:50:18.527Z,18.60
2022-10-02T02:51:18.524Z,15.00
2022-10-02T02:52:18.493Z,16.40
2022-10-02T02:53:18.501Z,13.00
2022-10-02T02:54:18.494Z,13.50
2022-10-02T02:55:18.490Z,16.60
2022-10-02T02:56:18.453Z,15.70
2022-10-02T02:57:18.463Z,18.20
2022-10-02T02:58:18.435Z,14.20
2022-10-02T02:59:18.441Z,14.50
2022-10-02T03:00:18.414Z,14.60
2022-10-02T03:01:18.466Z,15.00
2022-10-02T03:02:18.437Z,18.20
2022-10-02T03:03:18.394Z,18.30
2022-10-02T03:04:18.361Z,14.60
2022-10-02T03:05:18.365Z,12.10
2022-10-02T03:06:19.073Z,16.30
2022-10-02T03:07:18.363Z,16.00
2022-10-02T03:08:18.322Z,15.90
2022-10-02T03:09:18.316Z,15.90
2022-10-02T03:10:18.303Z,13.10
2022-10-02T03:11:18.325Z,15.80
2022-10-02T03:12:18.284Z,12.00
2022-10-02T03:13:18.272Z,14.00
2022-10-02T03:14:18.253Z,13.60
2022-10-02T03:15:18.253Z,15.10
2022-10-02T03:16:18.289Z,13.20
2022-10-02T03:17:18.245Z,13.80
2022-10-02T03:18:18.202Z,15.30
2022-10-02T03:19:18.205Z,13.40
2022-10-02T03:20:18.184Z,17.90
2022-10-02T03:21:18.183Z,15.10
2022-10-02T03:22:18.163Z,12.40
2022-10-02T03:23:18.153Z,14.80
2022-10-02T03:24:18.136Z,15.90
2022-10-02T03:25:18.143Z,15.50
2022-10-02T03:26:18.131Z,14.80
2022-10-02T03:27:18.132Z,15.10
2022-10-02T03:28:31.768Z,15.30
2022-10-02T03:29:19.094Z,17.10
2022-10-02T03:30:18.073Z,16.10
2022-10-02T03:31:18.126Z,15.00
2022-10-02T03:32:18.042Z,16.80
2022-10-02T03:33:18.032Z,15.20
2022-10-02T03:34:18.012Z,13.50
2022-10-02T03:35:18.033Z,12.40
2022-10-02T03:36:17.996Z,12.50
2022-10-02T03:37:18.001Z,15.80
2022-10-02T03:38:17.973Z,13.90
2022-10-02T03:39:25.220Z,13.10
2022-10-02T03:40:18.942Z,14.60
2022-10-02T03:41:17.943Z,12.80
2022-10-02T03:42:17.925Z,15.50
2022-10-02T03:43:17.951Z,11.70
2022-10-02T03:44:17.904Z,13.60
2022-10-02T03:45:39.092Z,14.60
2022-10-02T03:46:19.094Z,13.40
2022-10-02T03:47:18.731Z,14.50
2022-10-02T03:48:17.877Z,14.30
2022-10-02T03:49:17.872Z,16.90
2022-10-02T03:50:17.842Z,17.80
2022-10-02T03:51:17.829Z,16.80
2022-10-02T03:52:17.822Z,14.30
2022-10-02T03:53:17.801Z,17.30
2022-10-02T03:54:17.795Z,14.30
2022-10-02T03:55:17.792Z,18.90
2022-10-02T03:56:17.762Z,17.00
2022-10-02T03:57:17.761Z,16.20
2022-10-02T03:58:17.732Z,15.00
2022-10-02T03:59:17.741Z,19.40
2022-10-02T04:00:17.723Z,14.60
2022-10-02T04:01:17.775Z,16.00
2022-10-02T04:02:17.728Z,15.50
2022-10-02T04:03:17.723Z,15.90
2022-10-02T04:04:17.677Z,16.10
2022-10-02T04:05:17.683Z,18.40
2022-10-02T04:06:17.653Z,18.00
2022-10-02T04:07:17.675Z,14.00
2022-10-02T04:08:18.082Z,14.90
2022-10-02T04:09:17.630Z,15.50
2022-10-02T04:10:17.589Z,15.70
2022-10-02T04:11:17.611Z,17.80
2022-10-02T04:12:17.581Z,16.60
2022-10-02T04:13:17.671Z,17.00
2022-10-02T04:14:17.563Z,15.70
2022-10-02T04:15:17.565Z,16.20
2022-10-02T04:16:17.562Z,18.60
2022-10-02T04:17:17.531Z,15.50
2022-10-02T04:18:17.512Z,17.70
2022-10-02T04:19:17.511Z,14.20
2022-10-02T04:20:17.498Z,14.70
2022-10-02T04:21:17.491Z,17.50
2022-10-02T04:22:17.459Z,18.80
2022-10-02T04:23:17.461Z,15.00
2022-10-02T04:24:17.447Z,14.20
2022-10-02T04:25:17.451Z,17.80
2022-10-02T04:26:17.410Z,14.90
2022-10-02T04:27:17.421Z,18.80
2022-10-02T04:28:17.470Z,19.30
2022-10-02T04:29:17.481Z,16.30
2022-10-02T04:30:17.374Z,17.40
2022-10-02T04:31:17.421Z,17.50
2022-10-02T04:32:17.347Z,16.70
2022-10-02T04:33:17.351Z,16.20
2022-10-02T04:34:17.321Z,16.50
2022-10-02T04:35:17.331Z,18.30
2022-10-02T04:36:17.300Z,16.70
2022-10-02T04:37:17.301Z,16.30
2022-10-02T04:38:17.279Z,15.50
2022-10-02T04:39:17.281Z,14.40
2022-10-02T04:40:17.254Z,13.00
2022-10-02T04:41:17.249Z,18.10
2022-10-02T04:42:17.242Z,16.00
2022-10-02T04:43:17.230Z,15.10
2022-10-02T04:44:17.199Z,17.30
2022-10-02T04:45:17.208Z,15.10
2022-10-02T04:46:17.227Z,15.80
2022-10-02T04:47:17.192Z,14.10
2022-10-02T04:48:17.210Z,14.40
2022-10-02T04:49:17.220Z,16.80
2022-10-02T04:50:17.132Z,17.20
2022-10-02T04:51:17.140Z,15.30
2022-10-02T04:52:17.121Z,16.80
2022-10-02T04:53:17.120Z,13.20
2022-10-02T04:54:17.100Z,17.40
2022-10-02T04:55:17.099Z,17.60
2022-10-02T04:56:17.069Z,16.90
2022-10-02T04:57:17.069Z,20.40
2022-10-02T04:58:17.040Z,20.60
2022-10-02T04:59:17.063Z,18.90
2022-10-02T05:00:17.026Z,16.90
2022-10-02T05:01:17.072Z,14.20
2022-10-02T05:02:17.041Z,17.10
2022-10-02T05:03:17.000Z,16.70
2022-10-02T05:04:16.978Z,14.80
2022-10-02T05:05:16.980Z,16.80
2022-10-02T05:06:16.959Z,16.50
2022-10-02T05:07:16.960Z,15.00
2022-10-02T05:08:16.940Z,15.50
2022-10-02T05:09:17.769Z,17.70
2022-10-02T05:10:16.909Z,18.60
2022-10-02T05:11:16.909Z,15.10
2022-10-02T05:12:16.891Z,12.70
2022-10-02T05:13:16.889Z,15.80
2022-10-02T05:14:16.880Z,17.20
2022-10-02T05:15:16.869Z,17.00
2022-10-02T05:16:17.002Z,14.60
2022-10-02T05:17:16.869Z,18.00
2022-10-02T05:18:18.086Z,16.00
2022-10-02T05:19:16.830Z,17.30
2022-10-02T05:20:16.789Z,17.10
2022-10-02T05:21:16.800Z,12.30
2022-10-02T05:22:16.769Z,20.10
2022-10-02T05:23:16.781Z,16.30
2022-10-02T05:24:16.754Z,16.00
2022-10-02T05:25:16.759Z,14.60
2022-10-02T05:26:16.738Z,14.50
2022-10-02T05:27:16.727Z,15.00
2022-10-02T05:28:16.727Z,16.10
2022-10-02T05:29:16.730Z,16.70
2022-10-02T05:30:17.419Z,20.20
2022-10-02T05:31:16.701Z,13.10
2022-10-02T05:32:16.658Z,16.50
2022-10-02T05:33:16.660Z,17.40
2022-10-02T05:34:16.638Z,16.30
2022-10-02T05:35:16.629Z,18.90
2022-10-02T05:36:16.617Z,15.20
2022-10-02T05:37:16.638Z,18.60
2022-10-02T05:38:16.589Z,13.80
2022-10-02T05:39:16.593Z,15.90
2022-10-02T05:40:16.589Z,17.40
2022-10-02T05:41:16.569Z,15.00
2022-10-02T05:42:16.548Z,15.40
2022-10-02T05:43:16.542Z,17.80
2022-10-02T05:44:16.569Z,15.10
2022-10-02T05:45:16.511Z,15.80
2022-10-02T05:46:16.560Z,16.40
2022-10-02T05:47:16.485Z,15.90
2022-10-02T05:48:16.548Z,12.60
2022-10-02T05:49:16.498Z,16.80
2022-10-02T05:50:17.292Z,15.10
2022-10-02T05:51:16.457Z,13.80
2022-10-02T05:52:16.440Z,17.10
2022-10-02T05:53:16.418Z,12.80
2022-10-02T05:54:16.418Z,13.30
2022-10-02T05:55:16.397Z,15.30
2022-10-02T05:56:16.399Z,15.20
2022-10-02T05:57:16.369Z,15.10
2022-10-02T05:58:16.378Z,13.60
2022-10-02T05:59:17.029Z,14.50
2022-10-02T06:00:16.369Z,16.50
2022-10-02T06:01:16.377Z,17.20
2022-10-02T06:02:16.398Z,11.50
2022-10-02T06:03:16.318Z,18.70
2022-10-02T06:04:16.380Z,25.00
2022-10-02T06:05:16.319Z,15.80
2022-10-02T06:06:16.297Z,15.50
2022-10-02T06:07:16.329Z,18.90
2022-10-02T06:08:16.265Z,15.50
2022-10-02T06:09:19.805Z,14.50
2022-10-02T06:10:17.027Z,11.80
2022-10-02T06:11:16.467Z,14.80
2022-10-02T06:12:16.228Z,15.40
2022-10-02T06:13:16.188Z,14.10
2022-10-02T06:14:16.190Z,19.60
2022-10-02T06:15:16.167Z,15.60
2022-10-02T06:16:16.258Z,18.50
2022-10-02T06:17:16.148Z,14.20
2022-10-02T06:18:16.159Z,16.30
2022-10-02T06:19:16.118Z,11.90
2022-10-02T06:20:16.127Z,15.80
2022-10-02T06:21:16.267Z,13.90
2022-10-02T06:22:16.097Z,17.60
2022-10-02T06:23:16.097Z,17.10
2022-10-02T06:24:16.088Z,20.40
2022-10-02T06:25:16.056Z,15.90
2022-10-02T06:26:16.058Z,18.00
2022-10-02T06:27:16.046Z,17.70
2022-10-02T06:28:16.102Z,19.70
2022-10-02T06:29:19.204Z,15.20
2022-10-02T06:30:16.806Z,15.60
2022-10-02T06:31:16.028Z,16.20
2022-10-02T06:32:16.707Z,13.70
2022-10-02T06:33:15.971Z,17.60
2022-10-02T06:34:15.968Z,17.40
2022-10-02T06:35:15.947Z,14.00
2022-10-02T06:36:15.948Z,19.20
2022-10-02T06:37:15.939Z,15.80
2022-10-02T06:38:15.936Z,16.00
2022-10-02T06:39:15.928Z,14.20
2022-10-02T06:40:15.898Z,16.40
2022-10-02T06:41:15.889Z,13.30
2022-10-02T06:42:15.886Z,14.90
2022-10-02T06:43:15.847Z,17.30
2022-10-02T06:44:15.877Z,14.80
2022-10-02T06:45:15.837Z,14.80
2022-10-02T06:46:15.877Z,17.40
2022-10-02T06:47:15.827Z,15.80
2022-10-02T06:48:15.818Z,11.70
2022-10-02T06:49:15.788Z,14.20
2022-10-02T06:50:16.517Z,13.80
2022-10-02T06:51:16.676Z,17.10
2022-10-02T06:52:15.790Z,13.20
2022-10-02T06:53:15.756Z,14.30
2022-10-02T06:54:15.748Z,14.90
2022-10-02T06:55:15.735Z,11.70
2022-10-02T06:56:15.738Z,13.70
2022-10-02T06:57:15.715Z,12.40
2022-10-02T06:58:15.700Z,11.80
2022-10-02T06:59:15.679Z,14.60
2022-10-02T07:00:15.687Z,14.10
2022-10-02T07:01:15.711Z,10.30
2022-10-02T07:02:15.712Z,11.80
2022-10-02T07:03:15.626Z,15.30
2022-10-02T07:04:15.635Z,12.20
2022-10-02T07:05:15.985Z,18.10
2022-10-02T07:06:15.607Z,13.10
2022-10-02T07:07:15.588Z,14.20
2022-10-02T07:08:15.587Z,15.80
2022-10-02T07:09:15.567Z,16.60
2022-10-02T07:10:15.579Z,9.80
2022-10-02T07:11:15.556Z,15.70
2022-10-02T07:12:16.453Z,15.80
2022-10-02T07:13:16.166Z,11.00
2022-10-02T07:14:15.528Z,12.50
2022-10-02T07:15:15.507Z,11.50
2022-10-02T07:16:15.525Z,8.50
2022-10-02T07:17:17.475Z,13.70
2022-10-02T07:18:16.477Z,10.30
2022-10-02T07:19:15.448Z,9.40
2022-10-02T07:20:15.467Z,10.60
2022-10-02T07:21:15.446Z,10.30
2022-10-02T07:22:42.807Z,13.60
2022-10-02T07:23:16.405Z,8.70
2022-10-02T07:24:15.406Z,10.00
2022-10-02T07:25:15.384Z,12.80
2022-10-02T07:26:15.387Z,12.30
2022-10-02T07:27:15.697Z,12.70
2022-10-02T07:28:15.405Z,13.70
2022-10-02T07:29:15.364Z,9.40
2022-10-02T07:30:15.354Z,8.70
2022-10-02T07:31:15.364Z,12.20
2022-10-02T07:32:16.092Z,9.80
2022-10-02T07:33:15.327Z,8.50
2022-10-02T07:34:15.356Z,11.80
2022-10-02T07:35:15.293Z,9.10
2022-10-02T07:36:15.285Z,14.90
2022-10-02T07:37:15.255Z,11.00
2022-10-02T07:38:16.009Z,9.40
2022-10-02T07:39:15.246Z,9.50
2022-10-02T07:40:15.238Z,7.30
2022-10-02T07:41:15.211Z,10.10
2022-10-02T07:42:15.230Z,9.50
2022-10-02T07:43:15.244Z,10.60
2022-10-02T07:44:15.197Z,10.50
2022-10-02T07:45:15.175Z,10.00
2022-10-02T07:46:15.478Z,10.30
2022-10-02T07:47:15.156Z,8.30
2022-10-02T07:48:15.147Z,9.00
2022-10-02T07:49:15.977Z,10.20
2022-10-02T07:50:15.117Z,8.50
2022-10-02T07:51:19.117Z,11.50
2022-10-02T07:52:16.861Z,11.10
2022-10-02T07:53:15.127Z,11.00
2022-10-02T07:54:15.114Z,8.10
2022-10-02T07:55:15.057Z,6.00
2022-10-02T07:56:15.048Z,7.90
2022-10-02T07:57:15.027Z,8.30
2022-10-02T07:58:15.046Z,8.60
2022-10-02T07:59:14.998Z,8.20
2022-10-02T08:00:15.030Z,6.10
2022-10-02T08:01:14.967Z,8.10
2022-10-02T08:02:15.008Z,9.70
2022-10-02T08:03:15.056Z,6.60
2022-10-02T08:04:14.957Z,8.00
2022-10-02T08:05:14.956Z,8.10
2022-10-02T08:06:14.928Z,8.10
2022-10-02T08:07:14.914Z,8.80
2022-10-02T08:08:14.905Z,10.00
2022-10-02T08:09:14.888Z,5.20
2022-10-02T08:10:14.876Z,9.40
2022-10-02T08:11:15.657Z,7.70
2022-10-02T08:12:15.716Z,5.50
2022-10-02T08:13:15.720Z,7.90
2022-10-02T08:14:15.626Z,7.10
2022-10-02T08:15:14.807Z,8.80
2022-10-02T08:16:14.903Z,6.50
2022-10-02T08:17:14.787Z,10.00
2022-10-02T08:18:33.723Z,5.80
2022-10-02T08:19:15.756Z,6.60
2022-10-02T08:20:14.746Z,8.40
2022-10-02T08:21:14.736Z,7.20
2022-10-02T08:22:14.773Z,8.40
2022-10-02T08:23:14.707Z,8.50
2022-10-02T08:24:14.706Z,7.00
2022-10-02T08:25:14.687Z,5.50
2022-10-02T08:26:14.694Z,7.70
2022-10-02T08:27:14.685Z,7.50
2022-10-02T08:28:14.729Z,6.30
2022-10-02T08:29:14.638Z,5.30
2022-10-02T08:30:14.646Z,6.50
2022-10-02T08:31:14.732Z,7.20
2022-10-02T08:32:14.629Z,6.80
2022-10-02T08:33:15.336Z,6.80
2022-10-02T08:34:14.611Z,7.90
2022-10-02T08:35:14.605Z,7.10
2022-10-02T08:36:14.589Z,5.40
2022-10-02T08:37:14.559Z,4.80
2022-10-02T08:38:14.556Z,5.60
2022-10-02T08:39:14.516Z,4.30
2022-10-02T08:40:14.526Z,8.00
2022-10-02T08:41:14.497Z,8.60
2022-10-02T08:42:14.503Z,5.80
2022-10-02T08:43:14.488Z,7.70
2022-10-02T08:44:14.957Z,5.60
2022-10-02T08:45:14.447Z,8.60
2022-10-02T08:46:14.568Z,9.30
2022-10-02T08:47:14.437Z,6.40
2022-10-02T08:48:14.428Z,5.00
2022-10-02T08:49:14.606Z,6.00
2022-10-02T08:50:14.424Z,8.20
2022-10-02T08:51:14.376Z,9.10
2022-10-02T08:52:14.388Z,6.20
2022-10-02T08:53:14.407Z,7.40
2022-10-02T08:54:15.116Z,8.00
2022-10-02T08:55:15.150Z,7.40
2022-10-02T08:56:19.132Z,8.20
2022-10-02T08:57:15.316Z,8.70
2022-10-02T08:58:14.316Z,6.10
2022-10-02T08:59:14.278Z,9.50
2022-10-02T09:00:14.324Z,7.00
2022-10-02T09:01:14.361Z,5.40
2022-10-02T09:02:14.273Z,5.80
2022-10-02T09:03:14.238Z,7.80
2022-10-02T09:04:14.245Z,6.80
2022-10-02T09:05:14.214Z,6.10
2022-10-02T09:06:14.226Z,8.10
2022-10-02T09:07:14.216Z,5.80
2022-10-02T09:08:14.198Z,3.90
2022-10-02T09:09:14.163Z,6.00
2022-10-02T09:10:14.166Z,7.90
2022-10-02T09:11:14.136Z,7.20
2022-10-02T09:12:14.156Z,6.50
2022-10-02T09:13:14.117Z,7.20
2022-10-02T09:14:14.979Z,9.50
2022-10-02T09:15:14.294Z,6.70
2022-10-02T09:16:14.139Z,7.40
2022-10-02T09:17:14.076Z,6.80
2022-10-02T09:18:14.087Z,6.80
2022-10-02T09:19:14.056Z,5.50
2022-10-02T09:20:14.055Z,7.90
2022-10-02T09:21:14.035Z,8.80
2022-10-02T09:22:14.037Z,9.60
2022-10-02T09:23:14.007Z,6.20
2022-10-02T09:24:14.013Z,6.40
2022-10-02T09:25:13.974Z,10.10
2022-10-02T09:26:13.976Z,7.80
2022-10-02T09:27:14.028Z,6.10
2022-10-02T09:28:14.018Z,6.40
2022-10-02T09:29:13.956Z,7.40
2022-10-02T09:30:14.017Z,7.00
2022-10-02T09:31:13.949Z,8.40
2022-10-02T09:32:13.907Z,7.00
2022-10-02T09:33:15.939Z,8.40
2022-10-02T09:34:13.886Z,8.60
2022-10-02T09:35:13.867Z,6.00
2022-10-02T09:36:13.866Z,7.20
2022-10-02T09:37:13.846Z,8.40
2022-10-02T09:38:13.827Z,9.50
2022-10-02T09:39:13.815Z,11.00
2022-10-02T09:40:13.849Z,7.90
2022-10-02T09:41:13.786Z,9.60
2022-10-02T09:42:13.796Z,8.60
2022-10-02T09:43:13.758Z,7.90
2022-10-02T09:44:13.786Z,6.90
2022-10-02T09:45:13.746Z,8.40
2022-10-02T09:46:13.802Z,5.90
2022-10-02T09:47:13.728Z,8.20
2022-10-02T09:48:13.726Z,6.90
2022-10-02T09:49:13.698Z,6.50
2022-10-02T09:50:13.784Z,7.80
2022-10-02T09:51:13.676Z,6.00
2022-10-02T09:52:13.691Z,8.50
2022-10-02T09:53:13.648Z,8.80
2022-10-02T09:54:13.676Z,6.50
2022-10-02T09:55:14.377Z,9.10
2022-10-02T09:56:14.539Z,10.60
2022-10-02T09:57:13.647Z,8.00
2022-10-02T09:58:13.605Z,8.50
2022-10-02T09:59:13.587Z,7.20
2022-10-02T10:00:13.646Z,7.50
2022-10-02T10:01:13.623Z,7.50
2022-10-02T10:02:13.568Z,9.90
2022-10-02T10:03:13.579Z,8.50
2022-10-02T10:04:13.517Z,8.50
2022-10-02T10:05:13.528Z,8.40
2022-10-02T10:06:13.496Z,7.30
2022-10-02T10:07:16.288Z,6.20
2022-10-02T10:08:14.478Z,9.00
2022-10-02T10:09:13.485Z,11.20
2022-10-02T10:10:13.564Z,9.30
2022-10-02T10:11:13.465Z,11.00
2022-10-02T10:12:13.435Z,8.60
2022-10-02T10:13:13.426Z,8.90
2022-10-02T10:14:13.417Z,7.00
2022-10-02T10:15:13.426Z,10.40
2022-10-02T10:16:13.413Z,8.80
2022-10-02T10:17:13.418Z,11.50
2022-10-02T10:18:13.361Z,8.40
2022-10-02T10:19:13.365Z,10.20
2022-10-02T10:20:13.392Z,7.60
2022-10-02T10:21:13.337Z,7.50
2022-10-02T10:22:13.314Z,8.40
2022-10-02T10:23:13.321Z,10.00
2022-10-02T10:24:13.286Z,11.60
2022-10-02T10:25:13.307Z,6.60
2022-10-02T10:26:13.287Z,8.60
2022-10-02T10:27:13.290Z,10.40
2022-10-02T10:28:13.318Z,10.50
2022-10-02T10:29:13.256Z,7.40
2022-10-02T10:30:13.259Z,9.90
2022-10-02T10:31:13.260Z,6.80
2022-10-02T10:32:13.205Z,7.30
2022-10-02T10:33:13.206Z,9.90
2022-10-02T10:34:13.225Z,9.20
2022-10-02T10:35:13.185Z,7.00
2022-10-02T10:36:14.030Z,9.90
2022-10-02T10:37:13.237Z,7.90
2022-10-02T10:38:13.138Z,9.10
2022-10-02T10:39:13.138Z,7.30
2022-10-02T10:40:13.115Z,6.70
2022-10-02T10:41:13.117Z,10.30
2022-10-02T10:42:13.096Z,11.80
2022-10-02T10:43:16.610Z,10.50
2022-10-02T10:44:13.073Z,9.70
2022-10-02T10:45:13.077Z,7.80
2022-10-02T10:46:13.111Z,15.00
2022-10-02T10:47:13.076Z,12.80
2022-10-02T10:48:13.029Z,12.40
2022-10-02T10:49:13.027Z,11.80
2022-10-02T10:50:13.007Z,8.40
2022-10-02T10:51:13.017Z,7.20
2022-10-02T10:52:12.987Z,8.90
2022-10-02T10:53:12.992Z,10.50
2022-10-02T10:54:12.980Z,6.20
2022-10-02T10:55:12.987Z,9.60
2022-10-02T10:56:13.028Z,7.90
2022-10-02T10:57:12.967Z,8.90
2022-10-02T10:58:12.930Z,7.50
2022-10-02T10:59:12.917Z,7.30
2022-10-02T11:00:12.901Z,9.30
2022-10-02T11:01:12.967Z,8.80
2022-10-02T11:02:12.925Z,7.00
2022-10-02T11:03:12.888Z,7.00
2022-10-02T11:04:12.876Z,8.70
2022-10-02T11:05:12.857Z,8.00
2022-10-02T11:06:12.846Z,8.90
2022-10-02T11:07:12.838Z,6.80
2022-10-02T11:08:12.797Z,7.60
2022-10-02T11:09:12.817Z,6.60
2022-10-02T11:10:12.789Z,7.40
2022-10-02T11:11:12.798Z,7.90
2022-10-02T11:12:12.758Z,10.30
2022-10-02T11:13:12.758Z,8.20
2022-10-02T11:14:12.750Z,8.50
2022-10-02T11:15:12.748Z,8.00
2022-10-02T11:16:12.745Z,9.20
2022-10-02T11:17:13.671Z,8.80
2022-10-02T11:18:12.698Z,7.70
2022-10-02T11:19:12.701Z,10.30
2022-10-02T11:20:12.694Z,6.30
2022-10-02T11:21:12.677Z,9.90
2022-10-02T11:22:12.657Z,9.90
2022-10-02T11:23:12.658Z,8.10
2022-10-02T11:24:12.637Z,5.10
2022-10-02T11:25:13.279Z,10.00
2022-10-02T11:26:12.611Z,8.20
2022-10-02T11:27:12.619Z,6.00
2022-10-02T11:28:12.605Z,12.10
2022-10-02T11:29:12.585Z,11.30
2022-10-02T11:30:12.561Z,7.40
2022-10-02T11:31:12.616Z,7.60
2022-10-02T11:32:12.548Z,7.80
2022-10-02T11:33:12.548Z,7.80
2022-10-02T11:34:12.539Z,8.20
2022-10-02T11:35:12.521Z,8.90
2022-10-02T11:36:12.488Z,9.80
2022-10-02T11:37:13.128Z,9.70
2022-10-02T11:38:12.468Z,6.20
2022-10-02T11:39:12.475Z,9.60
2022-10-02T11:40:12.458Z,8.70
2022-10-02T11:41:12.458Z,7.70
2022-10-02T11:42:12.428Z,7.70
2022-10-02T11:43:12.418Z,9.30
2022-10-02T11:44:12.400Z,10.80
2022-10-02T11:45:12.419Z,8.80
2022-10-02T11:46:12.436Z,11.50
2022-10-02T11:47:12.391Z,7.60
2022-10-02T11:48:12.357Z,6.90
2022-10-02T11:49:12.348Z,8.20
2022-10-02T11:50:12.322Z,7.50
2022-10-02T11:51:12.338Z,7.00
2022-10-02T11:52:12.314Z,9.20
2022-10-02T11:53:12.318Z,7.20
2022-10-02T11:54:12.279Z,6.30
2022-10-02T11:55:12.315Z,6.90
2022-10-02T11:56:12.289Z,9.40
2022-10-02T11:57:12.269Z,7.10
2022-10-02T11:58:12.398Z,7.60
2022-10-02T11:59:12.239Z,7.80
2022-10-02T12:00:12.208Z,8.80
2022-10-02T12:01:12.244Z,8.00
2022-10-02T12:02:16.237Z,5.50
2022-10-02T12:03:12.265Z,7.70
2022-10-02T12:04:12.169Z,7.70
2022-10-02T12:05:12.167Z,6.50
2022-10-02T12:06:12.167Z,7.70
2022-10-02T12:07:12.161Z,6.10
2022-10-02T12:08:12.129Z,7.70
2022-10-02T12:09:12.168Z,7.60
2022-10-02T12:10:12.102Z,4.80
2022-10-02T12:11:12.103Z,4.90
2022-10-02T12:12:12.084Z,6.70
2022-10-02T12:13:12.080Z,6.60
2022-10-02T12:14:12.051Z,7.10
2022-10-02T12:15:12.058Z,6.10
2022-10-02T12:16:12.096Z,9.00
2022-10-02T12:17:12.059Z,5.90
2022-10-02T12:18:12.052Z,7.00
2022-10-02T12:19:12.047Z,6.60
2022-10-02T12:20:11.991Z,7.90
2022-10-02T12:21:11.989Z,7.70
2022-10-02T12:22:11.950Z,6.20
2022-10-02T12:23:11.989Z,6.50
2022-10-02T12:24:11.940Z,8.40
2022-10-02T12:25:11.948Z,6.30
2022-10-02T12:26:11.919Z,6.10
2022-10-02T12:27:11.919Z,7.50
2022-10-02T12:28:11.927Z,6.90
2022-10-02T12:29:11.908Z,12.70
2022-10-02T12:30:11.870Z,7.70
2022-10-02T12:31:11.869Z,7.40
2022-10-02T12:32:11.900Z,7.70
2022-10-02T12:33:11.847Z,6.90
2022-10-02T12:34:11.821Z,5.80
2022-10-02T12:35:11.829Z,8.90
2022-10-02T12:36:11.800Z,4.20
2022-10-02T12:37:11.840Z,8.70
2022-10-02T12:38:11.780Z,9.10
2022-10-02T12:39:12.711Z,9.70
2022-10-02T12:40:11.791Z,8.40
2022-10-02T12:41:11.780Z,4.70
2022-10-02T12:42:11.741Z,7.10
2022-10-02T12:43:11.730Z,7.80
2022-10-02T12:44:11.710Z,4.30
2022-10-02T12:45:12.645Z,5.80
2022-10-02T12:46:11.700Z,7.90
2022-10-02T12:47:11.701Z,8.90
2022-10-02T12:48:11.670Z,6.40
2022-10-02T12:49:11.651Z,4.30
2022-10-02T12:50:11.621Z,6.00
2022-10-02T12:51:12.232Z,4.40
2022-10-02T12:52:11.621Z,7.00
2022-10-02T12:53:11.750Z,4.70
2022-10-02T12:54:11.592Z,5.70
2022-10-02T12:55:11.601Z,7.00
2022-10-02T12:56:11.562Z,4.70
2022-10-02T12:57:11.570Z,5.00
2022-10-02T12:58:11.542Z,4.50
2022-10-02T12:59:11.571Z,7.50
2022-10-02T13:00:11.531Z,8.00
2022-10-02T13:01:11.576Z,6.60
2022-10-02T13:02:11.534Z,6.70